createdAt,value
2023-01-28T00:01:26.530Z,9.35
2023-01-28T00:03:53.673Z,8.52
2023-01-28T00:06:20.813Z,9.93
2023-01-28T00:08:47.895Z,9.18
2023-01-28T00:11:15.031Z,9.10
2023-01-28T00:13:42.372Z,8.32
2023-01-28T00:16:10.043Z,8.32
2023-01-28T00:18:37.575Z,9.77
2023-01-28T00:21:09.121Z,10.15
2023-01-28T00:23:37.277Z,8.55
2023-01-28T00:26:05.874Z,10.27
2023-01-28T00:28:32.959Z,9.05
2023-01-28T00:31:00.267Z,9.18
2023-01-28T00:33:29.406Z,9.93
2023-01-28T00:36:01.007Z,11.00
2023-01-28T00:38:28.566Z,8.15
2023-01-28T00:40:56.332Z,10.93
2023-01-28T00:43:23.440Z,9.27
2023-01-28T00:45:50.676Z,9.32
2023-01-28T00:48:17.943Z,10.48
2023-01-28T00:50:45.594Z,9.30
2023-01-28T00:53:12.830Z,9.70
2023-01-28T00:55:39.961Z,10.20
2023-01-28T00:58:07.054Z,8.25
2023-01-28T01:00:34.246Z,9.73
2023-01-28T01:03:01.381Z,9.27
2023-01-28T01:05:29.677Z,9.05
2023-01-28T01:07:56.813Z,12.88
2023-01-28T01:10:23.916Z,9.95
2023-01-28T01:12:51.015Z,9.15
2023-01-28T01:15:18.903Z,10.88
2023-01-28T01:17:47.572Z,10.40
2023-01-28T01:20:19.429Z,10.38
2023-01-28T01:22:46.610Z,10.80
2023-01-28T01:25:15.183Z,9.88
2023-01-28T01:27:43.117Z,10.25
2023-01-28T01:30:10.818Z,8.82
2023-01-28T01:32:37.868Z,10.18
2023-01-28T01:35:09.322Z,12.15
2023-01-28T01:37:36.695Z,9.07
2023-01-28T01:40:05.042Z,11.52
2023-01-28T01:42:33.121Z,10.20
2023-01-28T01:45:00.240Z,9.23
2023-01-28T01:47:30.504Z,8.40
2023-01-28T01:49:57.730Z,9.15
2023-01-28T01:52:27.112Z,9.27
2023-01-28T01:54:56.956Z,9.82
2023-01-28T01:57:26.624Z,9.93
2023-01-28T01:59:54.731Z,9.98
2023-01-28T02:02:22.492Z,8.95
2023-01-28T02:04:50.145Z,9.43
2023-01-28T02:07:19.328Z,10.15
2023-01-28T02:09:46.534Z,8.88
2023-01-28T02:12:22.145Z,9.32
2023-01-28T02:14:52.775Z,7.22
2023-01-28T02:17:20.293Z,9.38
2023-01-28T02:19:52.105Z,10.35
2023-01-28T02:22:19.338Z,10.02
2023-01-28T02:24:55.374Z,8.52
2023-01-28T02:27:30.131Z,9.00
2023-01-28T02:30:00.966Z,11.57
2023-01-28T02:32:40.214Z,10.73
2023-01-28T02:35:10.506Z,9.95
2023-01-28T02:37:39.718Z,9.85
2023-01-28T02:40:10.837Z,10.32
2023-01-28T02:42:40.325Z,10.80
2023-01-28T02:45:17.255Z,10.25
2023-01-28T02:47:59.870Z,10.35
2023-01-28T02:50:40.279Z,9.20
2023-01-28T02:53:26.019Z,10.93
2023-01-28T02:55:58.288Z,9.10
2023-01-28T02:58:31.517Z,6.93
2023-01-28T03:01:01.857Z,10.32
2023-01-28T03:03:47.679Z,10.38
2023-01-28T03:06:16.661Z,11.73
2023-01-28T03:09:04.917Z,9.57
2023-01-28T03:11:52.847Z,8.55
2023-01-28T03:14:39.450Z,8.55
2023-01-28T03:17:27.569Z,10.85
2023-01-28T03:20:13.801Z,9.15
2023-01-28T03:23:01.149Z,11.45
2023-01-28T03:25:46.907Z,10.23
2023-01-28T03:28:34.914Z,10.15
2023-01-28T03:31:32.335Z,9.50
2023-01-28T03:34:18.743Z,10.38
2023-01-28T03:36:50.383Z,9.43
2023-01-28T03:39:23.288Z,10.73
2023-01-28T03:41:59.359Z,13.05
2023-01-28T03:44:46.457Z,10.38
2023-01-28T03:47:14.058Z,10.13
2023-01-28T03:49:49.395Z,8.90
2023-01-28T03:52:20.771Z,9.90
2023-01-28T03:54:48.620Z,10.07
2023-01-28T03:57:20.019Z,10.68
2023-01-28T03:59:49.756Z,13.52
2023-01-28T04:02:17.410Z,10.00
2023-01-28T04:04:44.546Z,9.30
2023-01-28T04:07:14.104Z,8.15
2023-01-28T04:09:41.404Z,9.95
2023-01-28T04:12:08.484Z,9.25
2023-01-28T04:14:36.247Z,9.55
2023-01-28T04:17:03.395Z,9.25
2023-01-28T04:19:31.690Z,8.82
2023-01-28T04:21:58.848Z,9.50
2023-01-28T04:24:26.014Z,8.35
2023-01-28T04:26:55.504Z,10.90
2023-01-28T04:29:23.473Z,12.13
2023-01-28T04:31:50.714Z,10.65
2023-01-28T04:34:17.892Z,10.93
2023-01-28T04:36:45.054Z,10.50
2023-01-28T04:39:12.179Z,10.13
2023-01-28T04:41:39.319Z,13.23
2023-01-28T04:44:06.444Z,11.10
2023-01-28T04:46:33.730Z,11.57
2023-01-28T04:49:01.993Z,10.45
2023-01-28T04:51:29.111Z,9.68
2023-01-28T04:53:56.291Z,8.68
2023-01-28T04:56:23.509Z,8.75
2023-01-28T04:58:50.599Z,10.70
2023-01-28T05:01:17.743Z,10.27
2023-01-28T05:03:44.940Z,9.60
2023-01-28T05:06:12.032Z,9.73
2023-01-28T05:08:39.200Z,8.93
2023-01-28T05:11:06.334Z,9.50
2023-01-28T05:13:36.495Z,10.27
2023-01-28T05:16:03.708Z,9.32
2023-01-28T05:18:30.834Z,10.10
2023-01-28T05:20:58.239Z,10.45
2023-01-28T05:23:25.375Z,8.15
2023-01-28T05:25:52.446Z,10.65
2023-01-28T05:28:19.525Z,9.05
2023-01-28T05:30:46.731Z,9.73
2023-01-28T05:33:13.895Z,10.98
2023-01-28T05:35:41.002Z,8.80
2023-01-28T05:38:08.150Z,9.93
2023-01-28T05:40:35.357Z,10.90
2023-01-28T05:43:02.543Z,9.73
2023-01-28T05:45:29.684Z,10.02
2023-01-28T05:47:56.904Z,8.90
2023-01-28T05:50:24.123Z,11.10
2023-01-28T05:52:51.173Z,8.15
2023-01-28T05:55:20.713Z,9.18
2023-01-28T05:57:48.754Z,7.82
2023-01-28T06:00:16.748Z,9.02
2023-01-28T06:02:44.217Z,10.00
2023-01-28T06:05:11.497Z,8.95
2023-01-28T06:07:38.603Z,10.90
2023-01-28T06:10:05.961Z,8.45
2023-01-28T06:12:33.036Z,9.52
2023-01-28T06:15:00.131Z,10.20
2023-01-28T06:17:27.279Z,9.63
2023-01-28T06:19:54.365Z,11.98
2023-01-28T06:22:21.803Z,9.65
2023-01-28T06:24:49.044Z,10.27
2023-01-28T06:27:16.224Z,10.65
2023-01-28T06:29:43.375Z,9.30
2023-01-28T06:32:10.595Z,11.55
2023-01-28T06:34:37.742Z,9.52
2023-01-28T06:37:04.980Z,9.70
2023-01-28T06:39:32.819Z,8.65
2023-01-28T06:42:00.281Z,10.00
2023-01-28T06:44:27.447Z,11.02
2023-01-28T06:46:54.567Z,8.68
2023-01-28T06:49:22.024Z,7.60
2023-01-28T06:51:49.440Z,12.63
2023-01-28T06:54:16.598Z,10.77
2023-01-28T06:56:44.234Z,9.50
2023-01-28T06:59:11.379Z,12.00
2023-01-28T07:01:38.524Z,10.90
2023-01-28T07:04:05.772Z,11.38
2023-01-28T07:06:32.884Z,11.25
2023-01-28T07:09:00.038Z,12.13
2023-01-28T07:11:27.285Z,12.35
2023-01-28T07:13:54.526Z,8.73
2023-01-28T07:16:22.091Z,12.65
2023-01-28T07:18:49.263Z,9.80
2023-01-28T07:21:16.342Z,11.48
2023-01-28T07:23:43.539Z,10.60
2023-01-28T07:26:10.651Z,9.05
2023-01-28T07:28:37.877Z,10.82
2023-01-28T07:31:05.189Z,13.65
2023-01-28T07:33:32.466Z,14.05
2023-01-28T07:35:59.530Z,13.52
2023-01-28T07:38:26.655Z,13.38
2023-01-28T07:40:54.334Z,13.65
2023-01-28T07:43:21.645Z,11.75
2023-01-28T07:45:48.764Z,13.30
2023-01-28T07:48:16.324Z,10.65
2023-01-28T07:50:43.579Z,12.68
2023-01-28T07:53:11.425Z,11.23
2023-01-28T07:55:38.790Z,12.23
2023-01-28T07:58:07.035Z,12.48
2023-01-28T08:00:35.168Z,10.65
2023-01-28T08:03:05.717Z,12.52
2023-01-28T08:05:43.580Z,11.77
2023-01-28T08:08:11.401Z,12.35
2023-01-28T08:10:38.979Z,13.63
2023-01-28T08:13:06.536Z,11.15
2023-01-28T08:15:35.400Z,14.30
2023-01-28T08:18:03.017Z,11.50
2023-01-28T08:20:30.619Z,10.70
2023-01-28T08:23:08.215Z,12.20
2023-01-28T08:25:35.708Z,10.77
2023-01-28T08:28:03.071Z,11.98
2023-01-28T08:30:30.303Z,12.93
2023-01-28T08:32:58.260Z,14.88
2023-01-28T08:35:26.471Z,12.43
2023-01-28T08:37:54.009Z,12.68
2023-01-28T08:40:21.725Z,11.60
2023-01-28T08:42:49.805Z,11.85
2023-01-28T08:45:17.155Z,12.25
2023-01-28T08:47:50.519Z,13.55
2023-01-28T08:50:18.336Z,16.23
2023-01-28T08:52:51.255Z,14.68
2023-01-28T08:55:19.217Z,14.52
2023-01-28T08:57:46.549Z,13.52
2023-01-28T09:00:14.271Z,11.60
2023-01-28T09:02:44.698Z,9.90
2023-01-28T09:05:11.924Z,10.75
2023-01-28T09:07:39.544Z,9.20
2023-01-28T09:10:07.227Z,11.52
2023-01-28T09:12:34.666Z,10.05
2023-01-28T09:15:01.920Z,9.57
2023-01-28T09:17:29.042Z,9.00
2023-01-28T09:19:56.172Z,8.55
2023-01-28T09:22:23.507Z,7.22
2023-01-28T09:24:50.791Z,8.98
2023-01-28T09:27:17.894Z,8.75
2023-01-28T09:29:45.069Z,7.30
2023-01-28T09:32:12.252Z,7.32
2023-01-28T09:34:39.401Z,10.77
2023-01-28T09:37:06.648Z,5.93
2023-01-28T09:39:33.873Z,5.35
2023-01-28T09:42:27.369Z,7.65
2023-01-28T09:45:00.721Z,7.90
2023-01-28T09:47:31.493Z,11.35
2023-01-28T09:50:00.736Z,6.55
2023-01-28T09:52:31.348Z,5.53
2023-01-28T09:55:17.373Z,5.78
2023-01-28T09:57:47.637Z,6.50
2023-01-28T10:00:20.122Z,5.43
2023-01-28T10:02:50.452Z,6.30
2023-01-28T10:05:29.022Z,6.70
2023-01-28T10:08:15.147Z,6.82
2023-01-28T10:10:42.517Z,7.95
2023-01-28T10:13:28.616Z,6.35
2023-01-28T10:16:05.074Z,6.40
2023-01-28T10:18:43.116Z,7.57
2023-01-28T10:21:17.790Z,6.63
2023-01-28T10:24:04.390Z,7.47
2023-01-28T10:26:39.649Z,6.72
2023-01-28T10:29:16.029Z,8.48
2023-01-28T10:32:15.482Z,7.03
2023-01-28T10:34:42.756Z,5.57
2023-01-28T10:37:13.666Z,7.05
2023-01-28T10:39:40.981Z,8.75
2023-01-28T10:42:17.525Z,5.55
2023-01-28T10:44:45.936Z,7.20
2023-01-28T10:47:17.786Z,7.80
2023-01-28T10:49:48.518Z,7.82
2023-01-28T10:52:18.547Z,7.22
2023-01-28T10:54:45.695Z,7.72
2023-01-28T10:57:17.886Z,6.30
2023-01-28T10:59:45.208Z,6.32
2023-01-28T11:02:27.740Z,7.07
2023-01-28T11:05:18.237Z,5.93
2023-01-28T11:07:45.470Z,7.47
2023-01-28T11:10:32.224Z,6.97
2023-01-28T11:13:00.682Z,5.93
2023-01-28T11:15:27.772Z,7.40
2023-01-28T11:17:57.304Z,6.53
2023-01-28T11:20:25.694Z,7.63
2023-01-28T11:22:53.460Z,9.23
2023-01-28T11:25:26.577Z,6.90
2023-01-28T11:39:32.964Z,6.32
2023-01-28T12:10:29.917Z,7.95
2023-01-28T12:12:57.040Z,10.38
2023-01-28T12:15:43.106Z,9.95
2023-01-28T12:18:29.079Z,9.18
2023-01-28T12:20:56.374Z,10.43
2023-01-28T12:23:38.595Z,8.77
2023-01-28T12:28:44.978Z,12.60
2023-01-28T12:31:15.280Z,7.57
2023-01-28T12:34:05.370Z,7.97
2023-01-28T12:36:57.357Z,7.20
2023-01-28T12:39:52.700Z,7.05
2023-01-28T12:42:24.170Z,7.45
2023-01-28T12:44:55.118Z,5.78
2023-01-28T12:47:25.031Z,6.95
2023-01-28T12:49:56.108Z,7.60
2023-01-28T12:52:24.369Z,5.50
2023-01-28T12:55:05.204Z,7.15
2023-01-28T12:57:34.284Z,7.18
2023-01-28T13:00:07.095Z,6.55
2023-01-28T13:02:36.884Z,6.07
2023-01-28T13:05:14.609Z,6.93
2023-01-28T13:08:01.985Z,6.75
2023-01-28T13:10:36.374Z,5.80
2023-01-28T13:13:04.227Z,7.43
2023-01-28T13:15:31.896Z,8.27
2023-01-28T13:18:00.832Z,8.45
2023-01-28T13:20:51.023Z,7.88
2023-01-28T13:23:44.949Z,7.30
2023-01-28T13:26:24.605Z,7.32
2023-01-28T13:28:52.611Z,8.27
2023-01-28T13:31:20.894Z,8.43
2023-01-28T13:33:49.385Z,9.07
2023-01-28T13:36:33.874Z,8.75
2023-01-28T13:39:02.676Z,9.82
2023-01-28T13:41:43.363Z,9.77
2023-01-28T13:44:21.007Z,8.77
2023-01-28T13:46:48.140Z,9.30
2023-01-28T13:49:20.714Z,9.70
2023-01-28T13:52:02.674Z,9.65
2023-01-28T13:54:30.083Z,8.68
2023-01-28T13:57:00.402Z,9.80
2023-01-28T13:59:39.457Z,9.57
2023-01-28T14:02:06.605Z,8.88
2023-01-28T14:04:52.531Z,9.02
2023-01-28T14:07:19.599Z,9.02
2023-01-28T14:09:46.894Z,8.15
2023-01-28T14:12:16.927Z,5.63
2023-01-28T14:15:04.788Z,7.90
2023-01-28T14:17:43.032Z,6.97
2023-01-28T14:20:21.879Z,7.25
2023-01-28T14:22:49.398Z,6.82
2023-01-28T14:25:22.602Z,6.78
2023-01-28T14:27:53.763Z,7.75
2023-01-28T14:30:25.067Z,9.43
2023-01-28T14:32:53.839Z,10.02
2023-01-28T14:35:28.385Z,8.38
2023-01-28T14:37:55.759Z,9.52
2023-01-28T14:40:23.495Z,9.00
2023-01-28T14:42:52.848Z,8.52
2023-01-28T14:45:58.595Z,7.75
2023-01-28T14:48:31.955Z,8.05
2023-01-28T14:51:17.229Z,7.40
2023-01-28T14:53:47.144Z,5.70
2023-01-28T14:56:20.981Z,9.05
2023-01-28T14:58:56.986Z,5.80
2023-01-28T15:01:28.572Z,7.53
2023-01-28T15:03:55.792Z,9.10
2023-01-28T15:06:24.647Z,7.25
2023-01-28T15:08:52.556Z,7.03
2023-01-28T15:11:24.561Z,7.05
2023-01-28T15:13:59.289Z,8.10
2023-01-28T15:16:31.520Z,9.40
2023-01-28T15:19:01.037Z,8.68
2023-01-28T15:21:29.393Z,10.10
2023-01-28T15:23:58.264Z,8.18
2023-01-28T15:26:26.884Z,8.68
2023-01-28T15:28:54.548Z,8.68
2023-01-28T15:31:26.179Z,9.55
2023-01-28T15:34:00.371Z,11.52
2023-01-28T15:36:28.009Z,8.55
2023-01-28T15:38:55.850Z,6.88
2023-01-28T15:41:25.287Z,10.48
2023-01-28T15:43:53.248Z,9.40
2023-01-28T15:46:20.583Z,9.20
2023-01-28T15:48:52.019Z,14.02
2023-01-28T15:51:20.789Z,14.60
2023-01-28T15:53:50.544Z,12.38
2023-01-28T15:56:24.564Z,16.85
2023-01-28T15:58:51.665Z,13.20
2023-01-28T16:01:20.019Z,9.63
2023-01-28T16:03:48.554Z,13.50
2023-01-28T16:06:16.765Z,12.18
2023-01-28T16:08:55.419Z,15.95
2023-01-28T16:11:34.263Z,15.95
2023-01-28T16:14:01.573Z,12.75
2023-01-28T16:16:35.779Z,11.88
2023-01-28T16:19:07.203Z,11.98
2023-01-28T16:21:38.821Z,11.73
2023-01-28T16:24:23.068Z,10.27
2023-01-28T16:27:16.332Z,13.55
2023-01-28T16:29:43.471Z,12.98
2023-01-28T16:32:30.518Z,11.98
2023-01-28T16:34:57.747Z,10.63
2023-01-28T16:39:58.163Z,12.35
2023-01-28T16:42:27.445Z,11.35
2023-01-28T16:44:54.540Z,8.75
2023-01-28T16:47:21.697Z,7.95
2023-01-28T16:49:48.926Z,10.32
2023-01-28T16:52:17.180Z,12.75
2023-01-28T16:54:47.322Z,9.05
2023-01-28T16:57:19.477Z,9.90
2023-01-28T16:59:46.606Z,9.70
2023-01-28T17:02:14.681Z,9.45
2023-01-28T17:04:41.798Z,9.32
2023-01-28T17:07:09.775Z,10.27
2023-01-28T17:09:36.923Z,9.05
2023-01-28T17:12:04.353Z,7.50
2023-01-28T17:14:31.578Z,8.25
2023-01-28T17:16:58.701Z,9.98
2023-01-28T17:19:25.843Z,9.90
2023-01-28T17:21:52.936Z,9.70
2023-01-28T17:24:20.101Z,8.43
2023-01-28T17:26:47.410Z,9.07
2023-01-28T17:29:14.465Z,14.00
2023-01-28T17:31:41.658Z,11.73
2023-01-28T17:34:11.642Z,9.45
2023-01-28T17:36:38.883Z,9.32
2023-01-28T17:39:08.980Z,9.18
2023-01-28T17:41:36.102Z,9.18
2023-01-28T17:44:04.560Z,7.43
2023-01-28T17:46:31.717Z,9.85
2023-01-28T17:48:58.773Z,8.15
2023-01-28T17:51:25.898Z,7.32
2023-01-28T17:53:53.948Z,8.18
2023-01-28T17:56:25.862Z,13.50
2023-01-28T17:58:53.937Z,10.02
2023-01-28T18:01:21.424Z,9.82
2023-01-28T18:03:48.864Z,10.10
2023-01-28T18:06:16.130Z,10.43
2023-01-28T18:08:43.304Z,14.45
2023-01-28T18:11:11.470Z,8.57
2023-01-28T18:13:39.117Z,8.23
2023-01-28T18:16:06.965Z,7.53
2023-01-28T18:18:34.669Z,8.02
2023-01-28T18:21:02.731Z,8.65
2023-01-28T18:23:30.112Z,8.35
2023-01-28T18:25:57.987Z,8.20
2023-01-28T18:28:25.553Z,12.05
2023-01-28T18:30:52.986Z,9.98
2023-01-28T18:33:20.851Z,7.38
2023-01-28T18:35:48.495Z,9.57
2023-01-28T18:38:18.162Z,10.10
2023-01-28T18:40:45.850Z,12.68
2023-01-28T18:43:13.519Z,8.77
2023-01-28T18:45:41.393Z,8.27
2023-01-28T18:48:08.550Z,8.15
2023-01-28T18:50:35.661Z,9.20
2023-01-28T18:53:02.840Z,10.00
2023-01-28T18:55:29.907Z,11.00
2023-01-28T18:57:57.475Z,12.55
2023-01-28T19:00:24.517Z,9.88
2023-01-28T19:02:51.637Z,9.40
2023-01-28T19:05:19.031Z,11.38
2023-01-28T19:07:46.151Z,9.93
2023-01-28T19:10:13.404Z,12.80
2023-01-28T19:12:40.564Z,11.38
2023-01-28T19:15:08.123Z,11.30
2023-01-28T19:17:35.664Z,9.32
2023-01-28T19:20:02.822Z,11.20
2023-01-28T19:22:30.068Z,13.30
2023-01-28T19:24:57.113Z,12.52
2023-01-28T19:27:24.274Z,12.35
2023-01-28T19:29:51.468Z,12.27
2023-01-28T19:32:18.548Z,10.05
2023-01-28T19:34:45.642Z,13.40
2023-01-28T19:37:13.372Z,9.40
2023-01-28T19:39:40.441Z,12.45
2023-01-28T19:42:07.606Z,12.63
2023-01-28T19:44:35.601Z,11.75
2023-01-28T19:47:02.857Z,13.00
2023-01-28T19:49:30.814Z,14.40
2023-01-28T19:51:57.965Z,12.98
2023-01-28T19:54:25.139Z,12.43
2023-01-28T19:56:52.428Z,10.98
2023-01-28T19:59:22.703Z,13.40
2023-01-28T20:01:49.838Z,14.10
2023-01-28T20:04:16.965Z,12.57
2023-01-28T20:06:44.092Z,12.98
2023-01-28T20:09:19.592Z,12.20
2023-01-28T20:11:46.671Z,13.60
2023-01-28T20:14:15.004Z,12.07
2023-01-28T20:16:42.664Z,14.02
2023-01-28T20:19:13.987Z,16.52
2023-01-28T20:21:41.195Z,11.02
2023-01-28T20:24:08.723Z,13.43
2023-01-28T20:26:37.678Z,12.80
2023-01-28T20:29:06.055Z,14.70
2023-01-28T20:31:33.557Z,12.57
2023-01-28T20:34:01.219Z,13.55
2023-01-28T20:36:28.387Z,12.95
2023-01-28T20:38:55.573Z,12.90
2023-01-28T20:41:23.642Z,13.32
2023-01-28T20:43:51.584Z,16.05
2023-01-28T20:46:19.328Z,13.43
2023-01-28T20:48:46.779Z,12.60
2023-01-28T20:51:18.139Z,13.73
2023-01-28T20:53:45.295Z,15.32
2023-01-28T20:56:14.368Z,18.52
2023-01-28T20:58:41.776Z,14.45
2023-01-28T21:01:08.997Z,14.02
2023-01-28T21:03:36.189Z,17.20
2023-01-28T21:06:03.241Z,14.32
2023-01-28T21:08:30.328Z,16.63
2023-01-28T21:10:57.437Z,15.07
2023-01-28T21:13:24.605Z,16.42
2023-01-28T21:15:52.935Z,14.57
2023-01-28T21:18:20.104Z,15.65
2023-01-28T21:20:47.482Z,15.52
2023-01-28T21:23:15.661Z,17.40
2023-01-28T21:25:43.200Z,14.20
2023-01-28T21:28:13.634Z,17.23
2023-01-28T21:30:40.840Z,13.80
2023-01-28T21:33:08.230Z,13.60
2023-01-28T21:35:42.204Z,12.73
2023-01-28T21:38:09.878Z,16.73
2023-01-28T21:40:37.375Z,15.73
2023-01-28T21:43:05.064Z,16.20
2023-01-28T21:45:32.131Z,18.23
2023-01-28T21:47:59.242Z,13.35
2023-01-28T21:50:26.419Z,13.30
2023-01-28T21:52:53.550Z,16.17
2023-01-28T21:55:20.795Z,15.45
2023-01-28T21:57:47.971Z,15.05
2023-01-28T22:00:15.645Z,17.42
2023-01-28T22:02:42.919Z,17.77
2023-01-28T22:05:10.091Z,16.52
2023-01-28T22:07:37.269Z,15.23
2023-01-28T22:10:04.551Z,14.02
2023-01-28T22:12:31.622Z,17.42
2023-01-28T22:14:58.779Z,12.98
2023-01-28T22:17:26.244Z,14.10
2023-01-28T22:19:53.380Z,14.98
2023-01-28T22:22:20.437Z,16.27
2023-01-28T22:24:47.618Z,16.48
2023-01-28T22:27:15.076Z,14.55
2023-01-28T22:29:42.183Z,14.13
2023-01-28T22:32:09.260Z,17.05
2023-01-28T22:34:36.401Z,12.50
2023-01-28T22:37:03.591Z,15.18
2023-01-28T22:39:30.767Z,14.27
2023-01-28T22:41:57.939Z,16.75
2023-01-28T22:44:26.371Z,14.70
2023-01-28T22:46:53.506Z,15.63
2023-01-28T22:49:22.145Z,15.52
2023-01-28T22:51:49.282Z,13.90
2023-01-28T22:54:16.414Z,17.23
2023-01-28T22:56:43.788Z,11.95
2023-01-28T22:59:12.121Z,13.32
2023-01-28T23:01:39.973Z,12.68
2023-01-28T23:04:07.116Z,14.98
2023-01-28T23:06:34.384Z,15.38
2023-01-28T23:09:01.488Z,15.43
2023-01-28T23:11:29.009Z,14.85
2023-01-28T23:14:16.308Z,15.23
2023-01-28T23:17:02.508Z,14.13
2023-01-28T23:19:48.725Z,15.82
2023-01-28T23:22:36.681Z,13.00
2023-01-28T23:25:03.994Z,13.55
2023-01-28T23:27:31.030Z,16.00
2023-01-28T23:29:58.169Z,16.23
2023-01-28T23:32:25.320Z,17.42
2023-01-28T23:34:52.485Z,17.65
2023-01-28T23:37:19.664Z,17.92
2023-01-28T23:39:46.791Z,13.93
2023-01-28T23:42:18.492Z,13.40
2023-01-28T23:44:45.818Z,14.82
2023-01-28T23:47:13.365Z,18.38
2023-01-28T23:49:40.620Z,13.93
2023-01-28T23:52:08.129Z,17.13
2023-01-28T23:54:35.440Z,17.90
2023-01-28T23:57:04.339Z,13.20
2023-01-28T23:59:31.415Z,15.88
